Iberville, Louisiana
Current Conditions -  °F | °C
As of 10:15 AM on Saturday 20 Dec 2014 (Local Time) from KL38 Reporting Station
Overcast Overcast  
Wind Chill: 47°   Ceiling: 700
Heat Index: 50°   Visibility: 10mi
Dew Point: 50°   Wind: 6mph
Humidity: 100%   Direction: 10°N
Pressure: 30.18"   Gusts: NA
Location:  30.2802°N, 91.0796°W
Report Text: KL38 201615Z AUTO 01005KT 10SM OVC007 10/10 A3018 RMK AO2 T00980098
Loading
Personal Weather Stations






























Interactive Weather Map New forecast layout! Learn more

10-Day Weather Forecast

Advertisements
Track Severe Weather on mobile